Time;durP1;ratioP1;P1;durP2;ratioP2;P2;SDS_P1;SDS_P2;PMS_P1;PMS_P2;Temp;Humidity;BMP_temperature;BMP_pressure;BME280_temperature;BME280_humidity;BME280_pressure;Samples;Min_cycle;Max_cycle;Signal;HPM_P1;HPM_P2
2024/04/21 00:00:24;;;;;;;0.60;0.60;;;;;;;4.97;100.00;93156.88;2101575;28;20019;-87
2024/04/21 00:01:25;;;;;;;1.38;0.60;;;;;;;4.98;100.00;93154.97;2101500;28;20024;-86
2024/04/21 00:02:26;;;;;;;1.25;0.68;;;;;;;5.05;100.00;93153.09;2089788;28;20028;-86
2024/04/21 00:03:26;;;;;;;0.55;0.50;;;;;;;5.04;100.00;93156.84;2097361;28;20082;-87
2024/04/21 00:04:27;;;;;;;0.52;0.50;;;;;;;4.88;100.00;93164.44;2092233;28;20078;-86
2024/04/21 00:05:28;;;;;;;0.50;0.50;;;;;;;4.92;100.00;93151.97;2106281;28;20048;-87
2024/04/21 00:06:29;;;;;;;0.77;0.60;;;;;;;4.95;100.00;93158.38;2100635;28;20020;-87
2024/04/21 00:07:31;;;;;;;0.60;0.60;;;;;;;5.02;100.00;93153.09;2103864;28;20020;-86
2024/04/21 00:08:32;;;;;;;0.60;0.60;;;;;;;4.98;100.00;93152.34;2106265;28;20040;-86
2024/04/21 00:09:33;;;;;;;0.73;0.70;;;;;;;5.07;100.00;93158.00;2094685;28;20425;-86
2024/04/21 00:10:34;;;;;;;0.90;0.60;;;;;;;5.08;100.00;93151.56;2096472;28;20527;-86
2024/04/21 00:11:35;;;;;;;0.85;0.68;;;;;;;5.14;100.00;93152.72;2108392;28;20028;-86
2024/04/21 00:12:36;;;;;;;0.60;0.60;;;;;;;4.81;100.00;93151.19;2100499;28;20046;-86
2024/04/21 00:13:37;;;;;;;1.20;0.57;;;;;;;4.95;100.00;93153.06;2097904;28;20446;-85
2024/04/21 00:14:38;;;;;;;1.08;0.60;;;;;;;4.90;100.00;93145.50;2093998;28;20140;-86
2024/04/21 00:15:39;;;;;;;1.05;0.43;;;;;;;4.78;100.00;93150.06;2089676;28;20052;-86
2024/04/21 00:16:40;;;;;;;0.70;0.70;;;;;;;5.04;100.00;93146.25;2093090;28;20339;-87
2024/04/21 00:17:41;;;;;;;1.02;0.65;;;;;;;5.03;100.00;93142.09;2096725;28;20086;-86
2024/04/21 00:18:42;;;;;;;0.65;0.65;;;;;;;4.87;100.00;93140.97;2089631;28;20056;-85
2024/04/21 00:19:43;;;;;;;0.60;0.60;;;;;;;4.78;100.00;93142.13;2105939;28;20051;-86
2024/04/21 00:20:44;;;;;;;1.05;0.95;;;;;;;4.62;100.00;93151.56;2097719;28;20028;-85
2024/04/21 00:21:45;;;;;;;0.50;0.50;;;;;;;4.74;100.00;93132.63;2104354;28;20384;-86
2024/04/21 00:22:46;;;;;;;0.60;0.60;;;;;;;4.70;100.00;93129.25;2104454;28;20059;-87
2024/04/21 00:23:47;;;;;;;0.85;0.73;;;;;;;4.74;100.00;93135.28;2114629;28;20023;-85
2024/04/21 00:24:48;;;;;;;0.50;0.50;;;;;;;4.60;100.00;93133.38;2101155;28;20161;-86
2024/04/21 00:25:58;;;;;;;0.93;0.70;;;;;;;4.62;100.00;93131.13;2081343;28;20021;-86
2024/04/21 00:26:59;;;;;;;1.13;0.70;;;;;;;4.54;100.00;93133.00;2083708;28;20435;-86
2024/04/21 00:28:00;;;;;;;0.50;0.50;;;;;;;4.49;100.00;93132.63;2084495;28;20060;-85
2024/04/21 00:29:01;;;;;;;0.88;0.77;;;;;;;4.63;100.00;93130.00;2097662;28;20078;-86
2024/04/21 00:30:02;;;;;;;0.80;0.80;;;;;;;4.60;100.00;93120.16;2082996;28;20458;-85
2024/04/21 00:31:04;;;;;;;0.70;0.70;;;;;;;4.67;100.00;93124.72;2082193;28;20372;-86
2024/04/21 00:32:05;;;;;;;0.90;0.70;;;;;;;4.68;100.00;93124.31;2081286;28;20178;-86
2024/04/21 00:33:06;;;;;;;1.10;0.60;;;;;;;4.60;100.00;93116.75;2093341;28;20063;-85
2024/04/21 00:34:07;;;;;;;0.60;0.60;;;;;;;4.47;100.00;93129.59;2097808;28;20101;-86
2024/04/21 00:35:09;;;;;;;1.08;0.68;;;;;;;4.65;100.00;93122.41;2097621;28;20033;-86
2024/04/21 00:36:09;;;;;;;1.35;0.70;;;;;;;4.67;100.00;93122.81;2089414;28;20024;-85
2024/04/21 00:37:10;;;;;;;0.75;0.70;;;;;;;4.58;100.00;93119.78;2084320;28;20028;-87
2024/04/21 00:38:11;;;;;;;0.88;0.65;;;;;;;4.62;100.00;93117.16;2097363;28;20091;-87
2024/04/21 00:39:12;;;;;;;0.57;0.57;;;;;;;4.63;100.00;93119.41;2089518;28;20058;-86
2024/04/21 00:40:13;;;;;;;1.10;0.70;;;;;;;4.55;100.00;93121.28;2085515;28;20106;-85
2024/04/21 00:41:14;;;;;;;0.70;0.70;;;;;;;4.62;100.00;93123.19;2094823;28;20085;-86
2024/04/21 00:42:16;;;;;;;0.77;0.77;;;;;;;4.40;100.00;93119.78;2097725;28;20082;-87
2024/04/21 00:43:16;;;;;;;1.88;0.80;;;;;;;4.58;100.00;93124.31;2094030;28;20041;-85
2024/04/21 00:44:17;;;;;;;0.80;0.70;;;;;;;4.42;100.00;93125.44;2097421;28;20028;-86
2024/04/21 00:45:18;;;;;;;0.85;0.55;;;;;;;4.45;100.00;93110.69;2105990;28;20028;-85
2024/04/21 00:46:19;;;;;;;0.70;0.70;;;;;;;4.46;100.00;93118.25;2089135;28;20486;-86
2024/04/21 00:47:20;;;;;;;0.98;0.60;;;;;;;4.64;100.00;93117.50;2097807;28;20662;-86
2024/04/21 00:48:21;;;;;;;1.92;0.70;;;;;;;4.69;100.00;93114.50;2103675;28;20035;-86
2024/04/21 00:49:23;;;;;;;0.70;0.70;;;;;;;4.66;100.00;93108.06;2104691;28;20055;-87
2024/04/21 00:50:25;;;;;;;1.17;0.88;;;;;;;4.52;100.00;93110.69;2089230;28;20571;-86
2024/04/21 00:51:26;;;;;;;2.13;0.70;;;;;;;4.40;100.00;93114.47;2084857;28;20021;-86
2024/04/21 00:52:27;;;;;;;1.75;0.80;;;;;;;4.53;100.00;93104.28;2081092;28;20542;-85
2024/04/21 00:53:28;;;;;;;0.70;0.70;;;;;;;4.49;100.00;93111.47;2087688;28;20073;-86
2024/04/21 00:54:30;;;;;;;2.03;0.85;;;;;;;4.59;100.00;93099.38;2097189;28;20137;-86
2024/04/21 00:55:31;;;;;;;1.95;0.80;;;;;;;4.51;100.00;93115.22;2097704;28;20036;-86
2024/04/21 00:56:33;;;;;;;1.17;0.90;;;;;;;4.46;100.00;93109.56;2097455;28;20428;-86
2024/04/21 00:57:34;;;;;;;1.60;1.00;;;;;;;4.49;100.00;93112.22;2106153;28;20028;-87
2024/04/21 00:58:36;;;;;;;0.90;0.90;;;;;;;4.51;100.00;93112.59;2097429;28;20036;-86
2024/04/21 00:59:37;;;;;;;0.98;0.90;;;;;;;4.51;100.00;93104.63;2097304;28;20086;-86
2024/04/21 01:00:38;;;;;;;1.20;1.10;;;;;;;4.21;100.00;93115.56;2105935;28;20032;-86
2024/04/21 01:01:39;;;;;;;1.00;1.00;;;;;;;4.74;100.00;93104.28;2089156;28;20055;-86
2024/04/21 01:02:42;;;;;;;1.48;1.20;;;;;;;4.67;100.00;93101.63;2089430;28;20091;-86
2024/04/21 01:03:44;;;;;;;1.58;1.13;;;;;;;4.62;100.00;93109.22;2110119;28;20110;-85
2024/04/21 01:04:45;;;;;;;3.03;1.10;;;;;;;4.51;100.00;93104.63;2105713;28;20034;-85
2024/04/21 01:05:46;;;;;;;1.17;1.08;;;;;;;4.43;100.00;93113.72;2105935;28;20030;-86
2024/04/21 01:06:46;;;;;;;2.90;1.33;;;;;;;4.44;100.00;93109.94;2097395;28;20433;-85
2024/04/21 01:07:47;;;;;;;2.50;1.20;;;;;;;4.80;100.00;93100.13;2089329;28;20036;-84
2024/04/21 01:08:48;;;;;;;2.25;1.10;;;;;;;4.97;100.00;93100.50;2114021;28;20500;-84
2024/04/21 01:09:49;;;;;;;3.90;1.38;;;;;;;4.90;100.00;93097.84;2105304;28;20051;-85
2024/04/21 01:10:50;;;;;;;2.67;1.20;;;;;;;5.03;100.00;93097.06;2091756;28;20595;-84
2024/04/21 01:11:52;;;;;;;2.03;1.30;;;;;;;5.03;100.00;93091.03;2082451;28;20033;-85
2024/04/21 01:12:53;;;;;;;4.78;1.50;;;;;;;4.75;100.00;93089.91;2085169;28;20024;-85
2024/04/21 01:13:54;;;;;;;1.55;1.35;;;;;;;4.88;100.00;93095.59;2097457;28;20055;-86
2024/04/21 01:14:54;;;;;;;1.85;1.33;;;;;;;4.86;100.00;93095.19;2080553;28;20068;-86
2024/04/21 01:15:55;;;;;;;1.58;1.15;;;;;;;4.87;100.00;93088.00;2080875;28;20021;-85
2024/04/21 01:16:56;;;;;;;2.58;1.60;;;;;;;4.49;100.00;93093.69;2088815;28;20017;-85
2024/04/21 01:17:57;;;;;;;4.00;1.67;;;;;;;4.59;100.00;93088.78;2080777;28;20044;-84
2024/04/21 01:18:58;;;;;;;1.60;1.50;;;;;;;4.60;100.00;93085.00;2097631;28;20031;-85
2024/04/21 01:19:59;;;;;;;2.90;1.40;;;;;;;4.55;100.00;93084.22;2105545;28;20418;-85
2024/04/21 01:21:00;;;;;;;2.67;1.50;;;;;;;4.46;100.00;93081.19;2088921;28;20389;-84
2024/04/21 01:22:01;;;;;;;2.00;1.38;;;;;;;4.36;100.00;93081.97;2089010;28;20031;-85
2024/04/21 01:23:03;;;;;;;1.40;1.30;;;;;;;4.40;100.00;93085.38;2080667;28;20363;-85
2024/04/21 01:24:04;;;;;;;3.05;1.70;;;;;;;4.34;100.00;93086.84;2081118;28;20530;-85
2024/04/21 01:25:06;;;;;;;2.95;1.45;;;;;;;4.40;100.00;93080.06;2087267;28;20017;-85
2024/04/21 01:26:07;;;;;;;4.03;1.67;;;;;;;4.32;100.00;93080.44;2096096;28;20115;-84
2024/04/21 01:27:08;;;;;;;1.73;1.40;;;;;;;4.33;100.00;93080.06;2089092;28;20017;-86
2024/04/21 01:28:09;;;;;;;2.38;1.23;;;;;;;4.33;100.00;93074.00;2088552;28;20528;-84
2024/04/21 01:29:10;;;;;;;2.70;1.42;;;;;;;4.27;100.00;93071.00;2080848;28;20033;-85
2024/04/21 01:30:13;;;;;;;3.70;1.50;;;;;;;4.22;100.00;93069.47;2088220;28;20028;-86
2024/04/21 01:31:15;;;;;;;2.58;1.60;;;;;;;4.24;100.00;93069.09;2088936;28;20040;-86
2024/04/21 01:32:19;;;;;;;1.60;1.50;;;;;;;4.41;100.00;93068.34;2081182;28;20390;-84
2024/04/21 01:33:20;;;;;;;1.73;1.23;;;;;;;4.40;100.00;93069.50;2083716;28;20088;-85
2024/04/21 01:34:21;;;;;;;2.63;1.60;;;;;;;4.27;100.00;93066.44;2081363;28;20025;-86
2024/04/21 01:35:22;;;;;;;2.72;1.60;;;;;;;4.45;100.00;93060.41;2084189;28;20049;-86
2024/04/21 01:36:23;;;;;;;1.48;1.38;;;;;;;4.57;100.00;93057.41;2089855;28;20036;-85
2024/04/21 01:37:24;;;;;;;3.92;1.60;;;;;;;4.53;100.00;93059.28;2097784;28;20031;-86
2024/04/21 01:38:25;;;;;;;2.95;1.42;;;;;;;4.51;100.00;93059.66;2090311;28;20087;-86
2024/04/21 01:39:26;;;;;;;1.48;1.38;;;;;;;4.32;100.00;93054.75;2088688;28;20142;-86
2024/04/21 01:40:27;;;;;;;1.33;1.27;;;;;;;4.49;100.00;93064.56;2088959;28;20020;-85
2024/04/21 01:41:28;;;;;;;1.98;1.42;;;;;;;4.53;100.00;93057.41;2090966;28;20025;-85
2024/04/21 01:42:29;;;;;;;2.65;1.50;;;;;;;4.55;100.00;93063.06;2097059;28;20036;-86
2024/04/21 01:43:30;;;;;;;2.60;1.50;;;;;;;4.50;100.00;93057.38;2088711;28;20040;-87
2024/04/21 01:44:31;;;;;;;1.60;1.50;;;;;;;4.46;100.00;93060.03;2086764;28;20040;-85
2024/04/21 01:45:32;;;;;;;4.80;2.03;;;;;;;4.40;100.00;93056.25;2080628;28;20079;-85
2024/04/21 01:46:33;;;;;;;4.95;1.90;;;;;;;4.47;100.00;93050.19;2093505;28;20147;-85
2024/04/21 01:47:34;;;;;;;3.80;1.85;;;;;;;4.47;100.00;93053.59;2089049;28;20132;-85
2024/04/21 01:48:35;;;;;;;2.55;1.70;;;;;;;4.46;100.00;93060.03;2104815;28;20096;-84
2024/04/21 01:49:36;;;;;;;2.78;1.73;;;;;;;4.59;100.00;93059.66;2094687;28;20134;-86
2024/04/21 01:50:46;;;;;;;1.55;1.45;;;;;;;4.40;100.00;93055.50;2080695;28;20654;-85
2024/04/21 01:51:49;;;;;;;1.48;1.38;;;;;;;4.54;100.00;93056.25;2097134;28;20409;-85
2024/04/21 01:52:50;;;;;;;3.38;1.75;;;;;;;4.44;100.00;93062.31;2088914;28;20477;-85
2024/04/21 01:53:51;;;;;;;2.47;1.70;;;;;;;4.54;100.00;93055.50;2097148;28;20457;-84
2024/04/21 01:54:52;;;;;;;2.15;1.50;;;;;;;4.45;100.00;93049.84;2101485;28;20041;-85
2024/04/21 01:55:53;;;;;;;2.38;1.55;;;;;;;4.61;100.00;93052.88;2088790;28;20033;-84
2024/04/21 01:56:54;;;;;;;3.22;1.70;;;;;;;4.43;100.00;93050.19;2096934;28;20051;-86
2024/04/21 01:57:57;;;;;;;2.20;1.60;;;;;;;4.50;100.00;93044.16;2102780;28;20043;-86
2024/04/21 01:58:57;;;;;;;3.85;1.85;;;;;;;4.60;100.00;93053.22;2088780;28;20031;-86
2024/04/21 01:59:58;;;;;;;2.15;1.40;;;;;;;4.73;100.00;93047.16;2102035;28;20016;-85
2024/04/21 02:00:59;;;;;;;2.92;1.80;;;;;;;4.61;100.00;93038.84;2088634;28;20173;-85
2024/04/21 02:02:00;;;;;;;3.33;1.70;;;;;;;4.69;100.00;93043.00;2096598;28;20036;-87
2024/04/21 02:03:02;;;;;;;2.00;1.80;;;;;;;4.59;100.00;93046.41;2096734;28;20209;-85
2024/04/21 02:04:03;;;;;;;1.92;1.73;;;;;;;4.64;100.00;93043.38;2088627;28;20028;-84
2024/04/21 02:05:04;;;;;;;2.20;2.00;;;;;;;4.36;100.00;93034.34;2087348;28;20056;-86
2024/04/21 02:06:05;;;;;;;2.67;1.83;;;;;;;4.30;100.00;93038.47;2104954;28;20030;-85
2024/04/21 02:07:09;;;;;;;2.40;1.52;;;;;;;4.24;100.00;93040.75;2096952;28;20086;-84
2024/04/21 02:08:10;;;;;;;1.60;1.50;;;;;;;4.39;100.00;93038.88;2085078;28;20465;-85
2024/04/21 02:09:11;;;;;;;2.85;1.48;;;;;;;4.31;100.00;93032.06;2079964;28;20033;-85
2024/04/21 02:10:12;;;;;;;2.63;2.00;;;;;;;4.32;100.00;93035.47;2098377;28;20076;-86
2024/04/21 02:11:13;;;;;;;2.55;1.50;;;;;;;4.19;100.00;93032.44;2087264;28;20202;-86
2024/04/21 02:12:14;;;;;;;2.08;1.70;;;;;;;4.33;100.00;93034.31;2095060;28;20047;-86
2024/04/21 02:13:15;;;;;;;1.92;1.60;;;;;;;4.51;100.00;93033.19;2088561;28;20025;-86
2024/04/21 02:14:16;;;;;;;3.13;2.00;;;;;;;4.58;100.00;93026.38;2096772;28;20040;-84
2024/04/21 02:15:17;;;;;;;2.58;1.70;;;;;;;4.34;100.00;93026.00;2095005;28;20107;-86
2024/04/21 02:16:18;;;;;;;1.88;1.58;;;;;;;4.37;100.00;93025.25;2094406;28;20442;-86
2024/04/21 02:17:19;;;;;;;2.58;1.60;;;;;;;4.39;100.00;93022.22;2096911;28;20028;-86
2024/04/21 02:18:20;;;;;;;3.00;1.83;;;;;;;4.45;100.00;93026.00;2091891;28;20458;-87
2024/04/21 02:19:21;;;;;;;3.05;2.05;;;;;;;4.36;100.00;93015.06;2095518;28;20880;-85
2024/04/21 02:20:21;;;;;;;2.75;1.65;;;;;;;4.34;100.00;93010.13;2088772;28;20559;-87
2024/04/21 02:21:23;;;;;;;2.42;1.60;;;;;;;4.24;100.00;93009.00;2096874;28;20039;-86
2024/04/21 02:22:24;;;;;;;2.88;2.05;;;;;;;4.28;100.00;93015.03;2100678;28;20024;-85
2024/04/21 02:23:25;;;;;;;2.50;1.60;;;;;;;4.19;100.00;93009.38;2082872;28;20387;-86
2024/04/21 02:24:28;;;;;;;3.03;1.60;;;;;;;4.32;100.00;93012.41;2088728;28;20810;-86
2024/04/21 02:25:30;;;;;;;3.20;1.75;;;;;;;4.26;100.00;93013.94;2097648;28;20028;-86
2024/04/21 02:27:55;;;;;;;;;;;;;;;2.24;100.00;93018.00;2147891;27;20152;-85
2024/04/21 02:28:56;;;;;;;2.92;1.60;;;;;;;2.39;100.00;93010.94;2129594;27;19915;-85
2024/04/21 02:29:57;;;;;;;2.50;1.55;;;;;;;2.36;100.00;93009.78;2112415;27;20032;-86
2024/04/21 02:30:58;;;;;;;5.07;1.80;;;;;;;2.25;100.00;93008.97;2112456;28;20020;-86
2024/04/21 02:31:59;;;;;;;3.95;1.70;;;;;;;2.32;100.00;93010.88;2120720;28;20019;-85
2024/04/21 02:33:01;;;;;;;2.58;1.52;;;;;;;2.26;100.00;93003.31;2112369;28;20050;-86
2024/04/21 02:34:02;;;;;;;1.90;1.67;;;;;;;2.36;100.00;93001.88;2112616;28;20077;-86
2024/04/21 02:35:04;;;;;;;3.97;1.67;;;;;;;2.60;100.00;93007.72;2111873;28;20031;-85
2024/04/21 02:36:05;;;;;;;2.00;1.70;;;;;;;2.48;100.00;93004.22;2103107;28;20025;-85
2024/04/21 02:37:06;;;;;;;2.05;1.83;;;;;;;2.39;100.00;93005.69;2106291;28;20081;-85
2024/04/21 02:38:09;;;;;;;2.55;1.58;;;;;;;2.57;100.00;93001.28;2112339;28;20110;-84
2024/04/21 02:39:10;;;;;;;1.85;1.60;;;;;;;2.60;100.00;93003.19;2113118;27;20054;-85
2024/04/21 02:40:12;;;;;;;2.95;1.98;;;;;;;2.58;100.00;92997.50;2117839;28;20518;-85
2024/04/21 02:41:13;;;;;;;1.70;1.60;;;;;;;2.57;100.00;93000.50;2119734;27;20069;-85
2024/04/21 02:42:13;;;;;;;2.97;1.75;;;;;;;2.47;100.00;93001.97;2121003;28;20039;-86
2024/04/21 02:43:15;;;;;;;3.05;1.70;;;;;;;2.36;100.00;93001.13;2104422;28;20907;-85
2024/04/21 02:44:16;;;;;;;2.22;1.58;;;;;;;2.40;100.00;92997.38;2095907;28;20040;-86
2024/04/21 02:45:17;;;;;;;3.42;2.22;;;;;;;2.42;100.00;92997.78;2095462;28;20029;-86
2024/04/21 02:46:21;;;;;;;1.98;1.77;;;;;;;2.50;100.00;93001.22;2104736;28;20550;-85
2024/04/21 02:47:22;;;;;;;3.00;1.90;;;;;;;2.56;100.00;92994.50;2103981;28;20080;-85
2024/04/21 02:48:23;;;;;;;3.85;2.00;;;;;;;2.48;100.00;92987.66;2104598;28;20027;-86
2024/04/21 02:49:24;;;;;;;1.88;1.60;;;;;;;2.59;100.00;92985.84;2112026;28;20337;-85
2024/04/21 02:50:25;;;;;;;2.35;1.77;;;;;;;2.56;100.00;92977.91;2099645;28;20024;-86
2024/04/21 02:51:26;;;;;;;2.13;1.67;;;;;;;2.59;100.00;92977.16;2112373;28;20086;-85
2024/04/21 02:52:27;;;;;;;2.60;1.73;;;;;;;2.51;100.00;92976.38;2120759;28;20042;-85
2024/04/21 02:53:28;;;;;;;3.33;1.67;;;;;;;2.58;100.00;92970.38;2103617;28;20098;-85
2024/04/21 02:54:29;;;;;;;2.58;1.63;;;;;;;2.53;100.00;92974.88;2095606;28;20044;-86
2024/04/21 02:55:30;;;;;;;1.92;1.58;;;;;;;2.57;100.00;92969.63;2095163;28;20044;-86
2024/04/21 02:56:31;;;;;;;2.70;1.38;;;;;;;2.63;100.00;92968.13;2104084;28;20024;-86
2024/04/21 02:57:33;;;;;;;2.03;1.80;;;;;;;2.44;100.00;92969.16;2112139;28;20504;-86
2024/04/21 02:58:34;;;;;;;3.10;1.83;;;;;;;2.35;100.00;92966.09;2112178;28;20020;-86
2024/04/21 02:59:35;;;;;;;2.22;1.52;;;;;;;2.36;100.00;92966.84;2111899;28;20019;-85
2024/04/21 03:00:37;;;;;;;3.05;1.80;;;;;;;2.56;100.00;92954.91;2112386;27;20020;-86
2024/04/21 03:01:38;;;;;;;2.65;1.75;;;;;;;2.45;100.00;92962.75;2112011;28;20077;-86
2024/04/21 03:02:39;;;;;;;2.70;1.60;;;;;;;2.39;100.00;92969.50;2112312;28;20023;-86
2024/04/21 03:03:40;;;;;;;3.17;1.75;;;;;;;2.38;100.00;92956.69;2110418;28;20054;-86
2024/04/21 03:04:41;;;;;;;3.90;2.10;;;;;;;2.25;100.00;92958.88;2103733;28;20405;-85
2024/04/21 03:05:42;;;;;;;3.50;1.80;;;;;;;2.23;100.00;92955.81;2097248;28;20053;-86
2024/04/21 03:06:47;;;;;;;2.58;1.80;;;;;;;2.10;100.00;92954.59;2112379;28;20043;-85
2024/04/21 03:07:47;;;;;;;4.82;2.08;;;;;;;2.19;100.00;92947.88;2103985;28;20024;-85
2024/04/21 03:08:48;;;;;;;3.42;1.92;;;;;;;2.14;100.00;92944.84;2111323;28;20299;-86
2024/04/21 03:09:49;;;;;;;2.63;1.70;;;;;;;2.09;100.00;92945.19;2112095;28;20020;-85
2024/04/21 03:10:50;;;;;;;2.00;1.85;;;;;;;2.10;100.00;92946.69;2112179;28;20035;-84
2024/04/21 03:11:51;;;;;;;1.80;1.65;;;;;;;2.29;100.00;92948.34;2114685;28;20061;-86
2024/04/21 03:12:52;;;;;;;3.47;1.90;;;;;;;2.25;100.00;92948.31;2095133;28;20120;-86
2024/04/21 03:13:53;;;;;;;3.35;1.80;;;;;;;2.20;100.00;92948.66;2096594;28;20048;-87
2024/04/21 03:14:54;;;;;;;3.40;1.90;;;;;;;2.29;100.00;92954.38;2094203;28;20140;-85
2024/04/21 03:15:55;;;;;;;3.10;1.90;;;;;;;2.32;100.00;92942.31;2095506;28;20082;-85
2024/04/21 03:16:56;;;;;;;4.65;2.10;;;;;;;2.47;100.00;92944.69;2103459;28;20055;-85
2024/04/21 03:17:57;;;;;;;3.00;1.80;;;;;;;2.48;100.00;92938.28;2103440;28;20059;-85
2024/04/21 03:18:58;;;;;;;2.33;1.92;;;;;;;2.44;100.00;92942.78;2095384;28;20614;-86
2024/04/21 03:19:59;;;;;;;4.40;1.95;;;;;;;2.57;100.00;92942.47;2111856;28;20159;-84
2024/04/21 03:21:00;;;;;;;5.25;2.03;;;;;;;2.47;100.00;92939.41;2090655;28;20025;-86
2024/04/21 03:22:01;;;;;;;3.30;2.03;;;;;;;2.61;100.00;92938.72;2108645;28;20020;-85
2024/04/21 03:23:02;;;;;;;4.63;1.75;;;;;;;2.78;100.00;92940.69;2112065;27;20055;-85
2024/04/21 03:24:03;;;;;;;3.17;1.92;;;;;;;2.82;100.00;92934.69;2111886;28;20039;-86
2024/04/21 03:25:04;;;;;;;3.63;1.70;;;;;;;2.79;100.00;92936.19;2106527;28;20031;-86
2024/04/21 03:26:05;;;;;;;5.55;2.10;;;;;;;2.74;100.00;92937.28;2103701;28;20028;-86
2024/04/21 03:27:07;;;;;;;3.17;2.05;;;;;;;2.66;100.00;92935.72;2110821;27;20062;-85
2024/04/21 03:28:08;;;;;;;3.25;1.95;;;;;;;2.92;100.00;92939.25;2111559;28;20027;-86
2024/04/21 03:29:08;;;;;;;3.33;1.83;;;;;;;2.91;100.00;92932.47;2112135;28;20071;-85
2024/04/21 03:30:10;;;;;;;4.15;2.35;;;;;;;2.86;100.00;92930.19;2111953;28;20440;-85
2024/04/21 03:31:10;;;;;;;4.32;2.00;;;;;;;2.82;100.00;92924.88;2112102;28;20047;-85
2024/04/21 03:32:14;;;;;;;2.90;1.90;;;;;;;2.82;100.00;92930.16;2103777;28;20020;-85
2024/04/21 03:33:15;;;;;;;5.22;2.00;;;;;;;2.80;100.00;92918.44;2106971;28;20073;-86
2024/04/21 03:34:16;;;;;;;5.85;1.80;;;;;;;2.81;100.00;92926.03;2103629;28;20028;-85
2024/04/21 03:35:17;;;;;;;4.47;2.08;;;;;;;2.61;100.00;92919.50;2104400;28;20063;-85
2024/04/21 03:36:18;;;;;;;1.98;1.80;;;;;;;2.73;100.00;92919.19;2102638;27;20035;-85
2024/04/21 03:37:19;;;;;;;3.35;1.70;;;;;;;2.83;100.00;92920.38;2103808;28;20017;-85
2024/04/21 03:38:20;;;;;;;2.78;1.77;;;;;;;2.82;100.00;92916.97;2098719;28;20393;-85
2024/04/21 03:39:21;;;;;;;4.13;2.03;;;;;;;2.74;100.00;92918.81;2114370;28;20024;-85
2024/04/21 03:40:22;;;;;;;3.20;1.85;;;;;;;2.72;100.00;92920.28;2114474;28;20035;-84
2024/04/21 03:41:23;;;;;;;3.55;2.20;;;;;;;2.79;100.00;92909.78;2106009;28;20028;-85
2024/04/21 03:42:24;;;;;;;3.05;1.95;;;;;;;2.74;100.00;92907.50;2089641;28;20024;-85
2024/04/21 03:43:25;;;;;;;3.58;1.77;;;;;;;2.75;100.00;92911.66;2097503;28;20016;-86
2024/04/21 03:44:26;;;;;;;1.77;1.65;;;;;;;2.86;100.00;92903.78;2098049;28;20143;-85
2024/04/21 03:45:27;;;;;;;3.42;1.85;;;;;;;2.75;100.00;92901.84;2106052;28;20093;-85
2024/04/21 03:46:28;;;;;;;4.80;2.40;;;;;;;2.80;100.00;92907.91;2107474;28;20028;-83
2024/04/21 03:47:29;;;;;;;4.57;2.08;;;;;;;2.62;100.00;92900.66;2114518;28;20506;-85
2024/04/21 03:48:31;;;;;;;4.32;2.00;;;;;;;2.62;100.00;92898.03;2093261;28;20021;-85
2024/04/21 03:49:31;;;;;;;3.65;2.03;;;;;;;2.59;100.00;92904.06;2098006;28;20115;-85
2024/04/21 03:50:32;;;;;;;5.82;2.35;;;;;;;2.62;100.00;92905.19;2105234;28;20031;-84
2024/04/21 03:51:33;;;;;;;3.53;1.85;;;;;;;2.59;100.00;92898.78;2091604;28;20437;-86
2024/04/21 03:52:34;;;;;;;4.38;1.98;;;;;;;2.57;100.00;92898.38;2097710;28;20404;-86
2024/04/21 03:53:35;;;;;;;3.65;2.13;;;;;;;2.54;100.00;92888.56;2105814;28;20016;-85
2024/04/21 03:54:36;;;;;;;3.45;2.05;;;;;;;2.48;100.00;92895.31;2106232;28;20621;-85
2024/04/21 03:55:37;;;;;;;4.05;2.33;;;;;;;2.51;100.00;92886.69;2105883;28;20040;-86
2024/04/21 03:56:38;;;;;;;3.10;2.30;;;;;;;2.44;100.00;92887.38;2107184;28;20132;-86
2024/04/21 03:57:39;;;;;;;2.58;2.08;;;;;;;2.42;100.00;92887.00;2097656;28;20028;-84
2024/04/21 03:58:40;;;;;;;3.72;2.00;;;;;;;2.50;100.00;92880.66;2089573;28;20480;-86
2024/04/21 03:59:41;;;;;;;4.70;2.28;;;;;;;2.71;100.00;92881.84;2106259;28;20384;-86
2024/04/21 04:00:43;;;;;;;3.38;2.17;;;;;;;2.52;100.00;92885.53;2106231;28;20028;-85
2024/04/21 04:01:45;;;;;;;4.15;2.00;;;;;;;2.64;100.00;92885.22;2106310;28;20038;-86
2024/04/21 04:02:46;;;;;;;3.08;2.17;;;;;;;2.71;100.00;92877.31;2106376;28;20020;-86
2024/04/21 04:03:47;;;;;;;4.00;1.90;;;;;;;2.61;100.00;92878.03;2104796;28;20090;-85
2024/04/21 04:04:48;;;;;;;2.50;1.90;;;;;;;2.56;100.00;92880.28;2106140;28;20031;-86
2024/04/21 04:05:50;;;;;;;3.47;1.73;;;;;;;2.56;100.00;92875.75;2097706;28;20116;-86
2024/04/21 04:06:52;;;;;;;5.78;2.22;;;;;;;2.56;100.00;92875.75;2094077;28;20075;-86
2024/04/21 04:07:53;;;;;;;4.60;2.30;;;;;;;2.56;100.00;92877.66;2106162;28;20020;-84
2024/04/21 04:08:55;;;;;;;4.60;2.10;;;;;;;2.62;100.00;92876.16;2105870;28;20115;-85
2024/04/21 04:09:56;;;;;;;4.93;2.17;;;;;;;2.50;100.00;92878.00;2092481;28;20033;-85
2024/04/21 04:10:57;;;;;;;2.08;1.88;;;;;;;2.68;100.00;92877.34;2101789;28;20023;-85
2024/04/21 04:11:58;;;;;;;3.65;2.40;;;;;;;2.58;100.00;92880.66;2105930;28;20710;-85
2024/04/21 04:12:59;;;;;;;4.38;1.75;;;;;;;2.62;100.00;92882.19;2113815;27;20399;-86
2024/04/21 04:14:00;;;;;;;2.20;2.00;;;;;;;2.67;100.00;92870.53;2106260;28;20395;-86
2024/04/21 04:15:01;;;;;;;6.70;2.17;;;;;;;2.70;100.00;92877.72;2109452;27;20043;-86
2024/04/21 04:16:02;;;;;;;3.65;1.80;;;;;;;2.70;100.00;92881.09;2123076;27;20102;-85
2024/04/21 04:17:03;;;;;;;1.92;1.80;;;;;;;2.64;100.00;92866.75;2117455;27;20019;-86
2024/04/21 04:18:05;;;;;;;2.83;1.73;;;;;;;2.64;100.00;92873.91;2106006;28;20031;-86
2024/04/21 04:19:06;;;;;;;3.05;1.90;;;;;;;2.60;100.00;92867.88;2105993;28;20024;-85
2024/04/21 04:20:09;;;;;;;3.15;1.83;;;;;;;2.72;100.00;92870.94;2106065;28;20024;-85
2024/04/21 04:21:10;;;;;;;3.20;1.80;;;;;;;2.64;100.00;92874.69;2098136;28;20025;-87
2024/04/21 04:22:11;;;;;;;6.57;1.90;;;;;;;2.70;100.00;92872.44;2097426;28;20107;-86
2024/04/21 04:23:12;;;;;;;3.03;1.85;;;;;;;2.76;100.00;92870.94;2114248;28;20135;-86
2024/04/21 04:24:13;;;;;;;3.63;2.03;;;;;;;2.75;100.00;92874.69;2114422;28;20020;-85
2024/04/21 04:25:14;;;;;;;3.58;1.80;;;;;;;2.80;100.00;92870.94;2102440;28;20024;-85
2024/04/21 04:26:15;;;;;;;3.83;1.70;;;;;;;2.84;100.00;92877.00;2114620;27;20030;-85
2024/04/21 04:27:16;;;;;;;3.33;1.58;;;;;;;2.88;100.00;92867.22;2105863;28;20072;-86
2024/04/21 04:28:18;;;;;;;4.93;1.92;;;;;;;3.03;100.00;92866.88;2105886;28;20111;-85
2024/04/21 04:29:19;;;;;;;3.75;2.30;;;;;;;3.02;100.00;92867.25;2106063;28;20471;-86
2024/04/21 04:30:21;;;;;;;3.88;2.10;;;;;;;2.83;100.00;92864.94;2097429;28;20311;-85
2024/04/21 04:31:22;;;;;;;4.65;1.80;;;;;;;2.86;100.00;92853.63;2097993;28;20021;-85
2024/04/21 04:32:23;;;;;;;4.55;2.05;;;;;;;2.93;100.00;92856.28;2097540;28;20067;-85
2024/04/21 04:33:24;;;;;;;2.08;1.75;;;;;;;2.86;100.00;92858.91;2100456;28;20028;-85
2024/04/21 04:34:25;;;;;;;4.18;1.90;;;;;;;2.77;100.00;92860.03;2097494;28;20027;-86
2024/04/21 04:35:26;;;;;;;3.20;1.83;;;;;;;2.88;100.00;92859.28;2095193;28;20066;-84
2024/04/21 04:36:27;;;;;;;2.92;1.83;;;;;;;3.02;100.00;92852.16;2104740;28;20116;-85
2024/04/21 04:37:28;;;;;;;3.35;1.65;;;;;;;3.08;100.00;92857.09;2103101;28;20020;-85
2024/04/21 04:38:28;;;;;;;3.97;2.22;;;;;;;2.74;100.00;92860.00;2109139;28;20482;-85
2024/04/21 04:39:30;;;;;;;3.05;1.90;;;;;;;2.75;100.00;92856.97;2114319;27;20384;-84
2024/04/21 04:40:32;;;;;;;4.55;1.75;;;;;;;2.80;100.00;92863.78;2114050;28;20038;-84
2024/04/21 04:41:33;;;;;;;3.95;2.20;;;;;;;2.79;100.00;92862.28;2096077;28;20024;-84
2024/04/21 04:42:34;;;;;;;4.10;2.08;;;;;;;2.99;100.00;92852.91;2090265;28;20041;-86
2024/04/21 04:43:35;;;;;;;4.00;1.52;;;;;;;2.95;100.00;92857.44;2100299;28;20021;-85
2024/04/21 04:44:36;;;;;;;3.25;1.80;;;;;;;2.97;100.00;92859.69;2097531;28;20090;-85
2024/04/21 04:45:37;;;;;;;2.15;1.95;;;;;;;2.99;100.00;92858.19;2105594;28;20129;-85
2024/04/21 04:46:38;;;;;;;5.75;2.10;;;;;;;3.16;100.00;92862.00;2099876;28;20054;-86
2024/04/21 04:47:39;;;;;;;3.55;2.20;;;;;;;3.26;100.00;92849.94;2105754;28;20012;-85
2024/04/21 04:48:40;;;;;;;3.20;1.85;;;;;;;3.09;100.00;92850.66;2097557;28;20036;-85
2024/04/21 04:49:41;;;;;;;4.80;1.70;;;;;;;3.16;100.00;92856.72;2105994;28;20026;-85